Latest Weather Observations for Fawkner Beacon

IDV60801

Issued at 5:32 am EDT Friday 24 November 2017 (issued every 30 minutes, with the page automatically refreshed every 10 minutes)

About weather observations | Map of weather stations | Latest weather observations for VIC | Other Formats
Station Details ID: 086376 Name: FAWKNER BEACON Lat: -37.91 Lon: 144.93 Height: 17.0 m
Data from the previous 72 hours. | See also: Recent months for locations in Victoria
Date/Time
EDT
Temp
°C
App
Temp
°C
Dew
Point
°C
Rel
Hum
%
Delta-T
°C
Wind Press
QNH
hPa
Press
MSL
hPa
Rain since
9am
mm
Dir  Spd
km/h
Gust
km/h
Spd
kts
Gust
kts
24/05:30am - - - - - W 9 11 5 6 - - -
24/05:00am - - - - - W 11 13 6 7 - - -
24/04:30am - - - - - W 13 15 7 8 - - -
24/04:00am - - - - - SW 7 9 4 5 - - -
24/03:30am - - - - - W 6 9 3 5 - - -
24/03:00am - - - - - NNW 6 9 3 5 - - -
24/02:30am - - - - - SSW 9 13 5 7 - - -
24/02:00am - - - - - SE 7 9 4 5 - - -
24/01:30am - - - - - WNW 9 13 5 7 - - -
24/01:00am - - - - - NW 28 33 15 18 - - -
24/12:30am - - - - - NNW 17 26 9 14 - - -
24/12:00am - - - - - SSE 11 15 6 8 - - -
 
Date/Time
EDT
Temp
°C
App
Temp
°C
Dew
Point
°C
Rel
Hum
%
Delta-T
°C
Wind Press
QNH
hPa
Press
MSL
hPa
Rain since
9am
mm
Dir  Spd
km/h
Gust
km/h
Spd
kts
Gust
kts
23/11:30pm - - - - - WSW 13 24 7 13 - - -
23/11:00pm - - - - - W 24 32 13 17 - - -
23/10:30pm - - - - - SSE 28 33 15 18 - - -
23/10:00pm - - - - - S 32 35 17 19 - - -
23/09:30pm - - - - - SSW 20 24 11 13 - - -
23/09:00pm - - - - - NW 19 24 10 13 - - -
23/08:30pm - - - - - N 32 39 17 21 - - -
23/08:00pm - - - - - N 35 44 19 24 - - -
23/07:50pm - - - - - NNW 30 43 16 23 - - -
23/07:30pm - - - - - NW 17 24 9 13 - - -
23/07:00pm - - - - - ESE 13 17 7 9 - - -
23/06:30pm - - - - - E 11 15 6 8 - - -
23/06:00pm - - - - - E 2 6 1 3 - - -
23/05:30pm - - - - - W 6 9 3 5 - - -
23/05:00pm - - - - - N 15 22 8 12 - - -
23/04:30pm - - - - - N 17 32 9 17 - - -
23/04:19pm - - - - - W 46 104 25 56 - - -
23/04:15pm - - - - - W 59 104 32 56 - - -
23/04:11pm - - - - - W 67 104 36 56 - - -
23/04:05pm - - - - - WNW 54 85 29 46 - - -
23/04:02pm - - - - - WNW 44 80 24 43 - - -
23/04:01pm - - - - - W 41 76 22 41 - - -
23/04:00pm - - - - - W 39 57 21 31 - - -
23/03:59pm - - - - - W 37 57 20 31 - - -
23/03:34pm - - - - - SW 30 48 16 26 - - -
23/03:30pm - - - - - SW 32 48 17 26 - - -
23/03:09pm - - - - - SW 35 52 19 28 - - -
23/03:00pm - - - - - SW 32 54 17 29 - - -
23/02:30pm - - - - - SW 26 41 14 22 - - -
23/02:27pm - - - - - SW 22 41 12 22 - - -
23/02:00pm - - - - - SE 9 11 5 6 - - -
23/01:30pm - - - - - SE 9 11 5 6 - - -
23/01:00pm - - - - - SSE 13 15 7 8 - - -
23/12:30pm - - - - - S 15 17 8 9 - - -
23/12:00pm - - - - - S 13 15 7 8 - - -
23/11:30am - - - - - S 13 13 7 7 - - -
23/11:00am - - - - - S 15 15 8 8 - - -
23/10:30am - - - - - SSW 13 15 7 8 - - -
23/10:00am - - - - - SW 9 13 5 7 - - -
23/09:30am - - - - - WSW 4 7 2 4 - - -
23/09:00am - - - - - WSW 4 7 2 4 - - -
23/08:30am - - - - - WNW 4 6 2 3 - - -
23/08:00am - - - - - NW 6 9 3 5 - - -
23/07:30am - - - - - NW 7 11 4 6 - - -
23/07:00am - - - - - NNW 13 17 7 9 - - -
23/06:30am - - - - - NW 13 17 7 9 - - -
23/06:00am - - - - - NW 19 22 10 12 - - -
23/05:30am - - - - - NNW 13 15 7 8 - - -
23/05:00am - - - - - NW 9 13 5 7 - - -
23/04:30am - - - - - SE 2 9 1 5 - - -
23/04:00am - - - - - SE 6 7 3 4 - - -
23/03:30am - - - - - SE 9 11 5 6 - - -
23/03:00am - - - - - CALM 0 7 0 4 - - -
23/02:30am - - - - - S 6 7 3 4 - - -
23/02:00am - - - - - SSW 9 11 5 6 - - -
23/01:30am - - - - - SSW 13 15 7 8 - - -
23/01:00am - - - - - SW 13 17 7 9 - - -
23/12:30am - - - - - SW 19 22 10 12 - - -
23/12:00am - - - - - SW 13 15 7 8 - - -
 
Date/Time
EDT
Temp
°C
App
Temp
°C
Dew
Point
°C
Rel
Hum
%
Delta-T
°C
Wind Press
QNH
hPa
Press
MSL
hPa
Rain since
9am
mm
Dir  Spd
km/h
Gust
km/h
Spd
kts
Gust
kts
22/11:30pm - - - - - SSW 9 11 5 6 - - -
22/11:00pm - - - - - SE 13 15 7 8 - - -
22/10:30pm - - - - - ESE 17 22 9 12 - - -
22/10:00pm - - - - - ESE 17 20 9 11 - - -
22/09:30pm - - - - - ESE 20 22 11 12 - - -
22/09:00pm - - - - - SE 20 22 11 12 - - -
22/08:30pm - - - - - SE 22 24 12 13 - - -
22/08:00pm - - - - - SE 20 22 11 12 - - -
22/07:30pm - - - - - SE 22 26 12 14 - - -
22/07:00pm - - - - - SSE 28 30 15 16 - - -
22/06:30pm - - - - - SSE 30 32 16 17 - - -
22/06:00pm - - - - - SSE 32 35 17 19 - - -
22/05:30pm - - - - - SSE 33 35 18 19 - - -
22/05:00pm - - - - - SSE 32 35 17 19 - - -
22/04:30pm - - - - - SSE 32 33 17 18 - - -
22/04:00pm - - - - - S 30 33 16 18 - - -
22/03:30pm - - - - - S 26 28 14 15 - - -
22/03:00pm - - - - - S 28 30 15 16 - - -
22/02:30pm - - - - - S 24 26 13 14 - - -
22/02:00pm - - - - - SSE 20 24 11 13 - - -
22/01:30pm - - - - - SSE 17 24 9 13 - - -
22/01:00pm - - - - - NW 6 9 3 5 - - -
22/12:30pm - - - - - N 9 13 5 7 - - -
22/12:00pm - - - - - N 13 15 7 8 - - -
22/11:30am - - - - - N 13 15 7 8 - - -
22/11:00am - - - - - N 20 22 11 12 - - -
22/10:30am - - - - - N 19 22 10 12 - - -
22/10:00am - - - - - N 11 13 6 7 - - -
22/09:30am - - - - - NNE 15 20 8 11 - - -
22/09:00am - - - - - NNE 17 20 9 11 - - -
22/08:30am - - - - - NNE 13 15 7 8 - - -
22/08:00am - - - - - N 11 15 6 8 - - -
22/07:30am - - - - - NNE 13 17 7 9 - - -
22/07:00am - - - - - NNE 13 15 7 8 - - -
22/06:30am - - - - - N 20 26 11 14 - - -
22/06:00am - - - - - N 13 17 7 9 - - -
22/05:30am - - - - - N 13 17 7 9 - - -
22/05:00am - - - - - N 9 13 5 7 - - -
22/04:30am - - - - - NNE 17 17 9 9 - - -
22/04:00am - - - - - NE 13 15 7 8 - - -
22/03:30am - - - - - ENE 13 15 7 8 - - -
22/03:00am - - - - - NE 9 13 5 7 - - -
22/02:30am - - - - - E 11 15 6 8 - - -
22/02:00am - - - - - E 17 20 9 11 - - -
22/01:30am - - - - - ESE 20 24 11 13 - - -
22/01:00am - - - - - ESE 24 26 13 14 - - -
22/12:30am - - - - - ESE 22 26 12 14 - - -
22/12:00am - - - - - ESE 20 22 11 12 - - -
 
Date/Time
EDT
Temp
°C
App
Temp
°C
Dew
Point
°C
Rel
Hum
%
Delta-T
°C
Wind Press
QNH
hPa
Press
MSL
hPa
Rain since
9am
mm
Dir  Spd
km/h
Gust
km/h
Spd
kts
Gust
kts
21/11:30pm - - - - - ESE 20 22 11 12 - - -
21/11:00pm - - - - - ESE 24 26 13 14 - - -
21/10:30pm - - - - - E 26 28 14 15 - - -
21/10:00pm - - - - - ESE 24 28 13 15 - - -
21/09:30pm - - - - - ESE 24 30 13 16 - - -
21/09:00pm - - - - - ESE 26 30 14 16 - - -
21/08:30pm - - - - - SE 26 30 14 16 - - -
21/08:00pm - - - - - SE 26 28 14 15 - - -
21/07:30pm - - - - - SE 28 30 15 16 - - -
21/07:00pm - - - - - SE 32 35 17 19 - - -
21/06:30pm - - - - - SE 32 35 17 19 - - -
21/06:00pm - - - - - SE 30 33 16 18 - - -
21/05:30pm - - - - - ESE 24 30 13 16 - - -
21/05:00pm - - - - - SE 19 20 10 11 - - -
21/04:30pm - - - - - SE 20 24 11 13 - - -
21/04:00pm - - - - - SE 24 28 13 15 - - -
21/03:30pm - - - - - SE 24 26 13 14 - - -
21/03:00pm - - - - - SE 24 28 13 15 - - -
21/02:30pm - - - - - ESE 19 28 10 15 - - -
21/02:00pm - - - - - SSE 7 9 4 5 - - -
21/01:30pm - - - - - SE 7 9 4 5 - - -
21/01:00pm - - - - - ENE 9 11 5 6 - - -
21/12:30pm - - - - - N 9 9 5 5 - - -
21/12:00pm - - - - - N 9 11 5 6 - - -
21/11:30am - - - - - N 15 20 8 11 - - -
21/11:00am - - - - - N 22 24 12 13 - - -
21/10:30am - - - - - N 17 20 9 11 - - -
21/10:00am - - - - - N 15 17 8 9 - - -
21/09:30am - - - - - N 9 13 5 7 - - -
21/09:00am - - - - - NNW 7 9 4 5 - - -
21/08:30am - - - - - NNW 6 7 3 4 - - -
21/08:00am - - - - - NNW 9 11 5 6 - - -
21/07:30am - - - - - NNW 13 15 7 8 - - -
21/07:00am - - - - - NNW 11 13 6 7 - - -
21/06:30am - - - - - NNW 15 20 8 11 - - -
21/06:00am - - - - - NNW 15 17 8 9 - - -

Other Formats:

Comma delimited format used in spreadsheet applications
http://www.bom.gov.au/fwo/IDV60801/IDV60801.95872.axf

JavaScript Object Notation format (JSON) in row-major order
http://www.bom.gov.au/fwo/IDV60801/IDV60801.95872.json